PWSweather.com
Personal Weather Stations
Station Observations
SHAHALMS1
Eftra, Falkenberg, HA

EftraFalkenberg, HA

Lat: 56.85, Lon: 12.65

Elevation: 140

Station Type:

http://hem.passagen.se/risarp101

High Low Average
Temperature 43.0°F6.1°C 36.7°F2.6°C 39.4°F4.1°C
Dew Point 39.6°F4.2°C 32.2°F0.1°C 34.8°F1.6°C
Winds 16.0 mph 25.7 kmh 5.0 mph 8.0 kmh 10.0 mph SW16.1 kmh SW
Wind Gusts 38.3 mph61.6 kmh 10.4 mph16.7 kmh 22.0 mph35.4 kmh
Humidity 95% 72% 84%
Pressure 29.62 in1003.0 mb 29.15 in987.1 mb -
Precipitation 0.26 in6.6 mm - -
Hour Temp Dew Point Humidity Winds Wind Gusts Pressure Precip Precip Rate Daily Precip Total
12:00 AM 37.4°F3.0°C 32.7°F0.4°C 83% 11.8 mph W19.0 kmh W 23.3 mph37.5 kmh 29.62 in1003.0 mb 0.00 in0.0 mm 0.00 in0.0 mm 0.00 in0.0 mm
12:15 AM 37.4°F3.0°C 33.0°F0.6°C 84% 11.1 mph W17.9 kmh W 24.3 mph39.1 kmh 29.59 in1002.0 mb 0.00 in0.0 mm 0.00 in0.0 mm 0.00 in0.0 mm
12:31 AM 37.6°F3.1°C 33.2°F0.7°C 84% 10.7 mph W17.2 kmh W 21.5 mph34.6 kmh 29.59 in1002.0 mb 0.00 in0.0 mm 0.00 in0.0 mm 0.00 in0.0 mm
12:45 AM 37.8°F3.2°C 33.4°F0.8°C 84% 9.5 mph W15.3 kmh W 19.7 mph31.7 kmh 29.59 in1002.0 mb 0.00 in0.0 mm 0.00 in0.0 mm 0.00 in0.0 mm
01:00 AM 37.9°F3.3°C 33.8°F1.0°C 85% 12.5 mph WSW20.1 kmh WSW 24.7 mph39.8 kmh 29.59 in1002.0 mb 0.00 in0.0 mm 0.00 in0.0 mm 0.00 in0.0 mm
01:15 AM 38.3°F3.5°C 34.2°F1.2°C 85% 9.6 mph W15.4 kmh W 17.2 mph27.7 kmh 29.59 in1002.0 mb 0.00 in0.0 mm 0.00 in0.0 mm 0.00 in0.0 mm
01:30 AM 38.3°F3.5°C 34.2°F1.2°C 85% 9.6 mph WSW15.4 kmh WSW 17.5 mph28.2 kmh 29.56 in1001.0 mb 0.00 in0.0 mm 0.00 in0.0 mm 0.00 in0.0 mm
01:45 AM 38.5°F3.6°C 34.4°F1.3°C 85% 10.2 mph W16.4 kmh W 23.6 mph38.0 kmh 29.59 in1002.0 mb 0.00 in0.0 mm 0.00 in0.0 mm 0.00 in0.0 mm
02:00 AM 38.7°F3.7°C 34.8°F1.6°C 86% 10.7 mph SW17.2 kmh SW 23.3 mph37.5 kmh 29.59 in1002.0 mb 0.00 in0.0 mm 0.00 in0.0 mm 0.00 in0.0 mm
02:15 AM 38.7°F3.7°C 34.8°F1.6°C 86% 9.7 mph WSW15.6 kmh WSW 20.8 mph33.5 kmh 29.56 in1001.0 mb 0.00 in0.0 mm 0.00 in0.0 mm 0.00 in0.0 mm
02:30 AM 38.5°F3.6°C 34.4°F1.3°C 85% 11.8 mph SW19.0 kmh SW 24.7 mph39.8 kmh 29.56 in1001.0 mb 0.00 in0.0 mm 0.00 in0.0 mm 0.00 in0.0 mm
02:45 AM 38.5°F3.6°C 34.4°F1.3°C 85% 10.8 mph SW17.4 kmh SW 23.3 mph37.5 kmh 29.53 in1000.0 mb 0.00 in0.0 mm 0.00 in0.0 mm 0.00 in0.0 mm
03:00 AM 38.5°F3.6°C 34.4°F1.3°C 85% 10.2 mph SW16.4 kmh SW 22.9 mph36.9 kmh 29.53 in1000.0 mb 0.00 in0.0 mm 0.00 in0.0 mm 0.00 in0.0 mm
03:15 AM 38.5°F3.6°C 34.1°F1.2°C 84% 11.1 mph SSW17.9 kmh SSW 23.3 mph37.5 kmh 29.53 in1000.0 mb 0.00 in0.0 mm 0.00 in0.0 mm 0.00 in0.0 mm
03:30 AM 38.5°F3.6°C 34.1°F1.2°C 84% 8.1 mph S13.0 kmh S 21.1 mph34.0 kmh 29.53 in1000.0 mb 0.00 in0.0 mm 0.00 in0.0 mm 0.00 in0.0 mm
03:45 AM 38.5°F3.6°C 34.1°F1.2°C 84% 8.9 mph SSW14.3 kmh SSW 20.0 mph32.2 kmh 29.50 in999.0 mb 0.00 in0.0 mm 0.00 in0.0 mm 0.00 in0.0 mm
04:00 AM 38.3°F3.5°C 34.2°F1.2°C 85% 8.1 mph S13.0 kmh S 17.5 mph28.2 kmh 29.47 in998.0 mb 0.00 in0.0 mm 0.00 in0.0 mm 0.00 in0.0 mm
04:15 AM 38.5°F3.6°C 34.7°F1.5°C 86% 8.7 mph S14.0 kmh S 20.8 mph33.5 kmh 29.47 in998.0 mb 0.00 in0.0 mm 0.00 in0.0 mm 0.00 in0.0 mm
04:30 AM 38.5°F3.6°C 34.7°F1.5°C 86% 6.8 mph S10.9 kmh S 16.8 mph27.0 kmh 29.47 in998.0 mb 0.00 in0.0 mm 0.00 in0.0 mm 0.00 in0.0 mm
04:45 AM 38.3°F3.5°C 34.2°F1.2°C 85% 7.6 mph S12.2 kmh S 17.9 mph28.8 kmh 29.45 in997.3 mb 0.00 in0.0 mm 0.00 in0.0 mm 0.00 in0.0 mm
05:00 AM 38.3°F3.5°C 34.5°F1.4°C 86% 8.5 mph S13.7 kmh S 20.4 mph32.8 kmh 29.45 in997.3 mb 0.00 in0.0 mm 0.00 in0.0 mm 0.00 in0.0 mm
05:15 AM 38.3°F3.5°C 34.5°F1.4°C 86% 6.3 mph S10.1 kmh S 12.9 mph20.8 kmh 29.41 in995.9 mb 0.00 in0.0 mm 0.00 in0.0 mm 0.00 in0.0 mm
05:30 AM 38.3°F3.5°C 34.8°F1.6°C 87% 6.5 mph S10.5 kmh S 13.6 mph21.9 kmh 29.41 in995.9 mb 0.00 in0.0 mm 0.00 in0.0 mm 0.00 in0.0 mm
05:45 AM 38.3°F3.5°C 34.8°F1.6°C 87% 8.3 mph S13.4 kmh S 22.9 mph36.9 kmh 29.41 in995.9 mb 0.00 in0.0 mm 0.00 in0.0 mm 0.00 in0.0 mm
06:00 AM 38.3°F3.5°C 34.8°F1.6°C 87% 7.9 mph S12.7 kmh S 16.5 mph26.6 kmh 29.41 in995.9 mb 0.00 in0.0 mm 0.00 in0.0 mm 0.00 in0.0 mm
06:15 AM 38.3°F3.5°C 34.8°F1.6°C 87% 5.6 mph S9.0 kmh S 19.7 mph31.7 kmh 29.39 in995.3 mb 0.00 in0.0 mm 0.00 in0.0 mm 0.00 in0.0 mm
06:30 AM 38.3°F3.5°C 34.5°F1.4°C 86% 7.0 mph S11.3 kmh S 16.8 mph27.0 kmh 29.33 in993.2 mb 0.00 in0.0 mm 0.00 in0.0 mm 0.00 in0.0 mm
06:45 AM 38.1°F3.4°C 34.6°F1.4°C 87% 5.6 mph S9.0 kmh S 12.9 mph20.8 kmh 29.36 in994.2 mb 0.00 in0.0 mm 0.00 in0.0 mm 0.00 in0.0 mm
07:00 AM 38.1°F3.4°C 34.9°F1.6°C 88% 7.3 mph S11.7 kmh S 24.3 mph39.1 kmh 29.36 in994.2 mb 0.00 in0.0 mm 0.00 in0.0 mm 0.00 in0.0 mm
07:15 AM 37.8°F3.2°C 34.8°F1.6°C 89% 9.4 mph S15.1 kmh S 24.3 mph39.1 kmh 29.33 in993.2 mb 0.00 in0.0 mm 0.00 in0.0 mm 0.00 in0.0 mm
07:30 AM 37.9°F3.3°C 35.3°F1.8°C 90% 8.5 mph SSE13.7 kmh SSE 24.3 mph39.1 kmh 29.33 in993.2 mb 0.00 in0.0 mm 0.00 in0.0 mm 0.00 in0.0 mm
07:45 AM 37.9°F3.3°C 35.3°F1.8°C 90% 6.6 mph S10.6 kmh S 17.5 mph28.2 kmh 29.30 in992.2 mb 0.00 in0.0 mm 0.00 in0.0 mm 0.00 in0.0 mm
08:00 AM 37.9°F3.3°C 35.3°F1.8°C 90% 7.4 mph S11.9 kmh S 17.5 mph28.2 kmh 29.30 in992.2 mb 0.00 in0.0 mm 0.00 in0.0 mm 0.00 in0.0 mm
08:15 AM 37.6°F3.1°C 34.9°F1.6°C 90% 6.9 mph SSE11.1 kmh SSE 19.3 mph31.1 kmh 29.30 in992.2 mb 0.05 in1.3 mm 0.20 in5.1 mm 0.05 in1.3 mm
08:31 AM 37.6°F3.1°C 34.9°F1.6°C 90% 7.4 mph SSE11.9 kmh SSE 14.3 mph23.0 kmh 29.27 in991.2 mb 0.05 in1.3 mm 0.00 in0.0 mm 0.05 in1.3 mm
08:45 AM 37.6°F3.1°C 34.9°F1.6°C 90% 8.9 mph SSE14.3 kmh SSE 19.7 mph31.7 kmh 29.27 in991.2 mb 0.05 in1.3 mm 0.00 in0.0 mm 0.05 in1.3 mm
09:00 AM 37.4°F3.0°C 34.7°F1.5°C 90% 7.1 mph SSE11.4 kmh SSE 22.9 mph36.9 kmh 29.24 in990.2 mb 0.10 in2.5 mm 0.07 in1.8 mm 0.10 in2.5 mm
09:15 AM 37.0°F2.8°C 34.4°F1.3°C 90% 8.2 mph S13.2 kmh S 20.8 mph33.5 kmh 29.24 in990.2 mb 0.05 in1.3 mm 0.00 in0.0 mm 0.10 in2.5 mm
09:30 AM 36.7°F2.6°C 34.0°F1.1°C 90% 6.4 mph SSE10.3 kmh SSE 19.3 mph31.1 kmh 29.24 in990.2 mb 0.10 in2.5 mm 0.20 in5.1 mm 0.15 in3.8 mm
09:45 AM 37.0°F2.8°C 34.7°F1.5°C 91% 7.5 mph SSE12.1 kmh SSE 23.6 mph38.0 kmh 29.24 in990.2 mb 0.10 in2.5 mm 0.00 in0.0 mm 0.15 in3.8 mm
10:00 AM 36.9°F2.7°C 34.5°F1.4°C 91% 5.1 mph S8.2 kmh S 12.5 mph20.1 kmh 29.21 in989.2 mb 0.05 in1.3 mm 0.00 in0.0 mm 0.15 in3.8 mm
10:15 AM 37.6°F3.1°C 35.5°F1.9°C 92% 5.0 mph S8.0 kmh S 10.4 mph16.7 kmh 29.21 in989.2 mb 0.05 in1.3 mm 0.00 in0.0 mm 0.15 in3.8 mm
10:30 AM 38.3°F3.5°C 36.7°F2.6°C 94% 6.0 mph S9.7 kmh S 16.5 mph26.6 kmh 29.18 in988.1 mb 0.05 in1.3 mm 0.00 in0.0 mm 0.20 in5.1 mm
10:45 AM 39.2°F4.0°C 37.9°F3.3°C 95% 9.8 mph S15.8 kmh S 20.8 mph33.5 kmh 29.18 in988.1 mb 0.05 in1.3 mm 0.00 in0.0 mm 0.20 in5.1 mm
11:00 AM 40.1°F4.5°C 38.8°F3.8°C 95% 13.7 mph SW22.0 kmh SW 24.3 mph39.1 kmh 29.18 in988.1 mb 0.05 in1.3 mm 0.00 in0.0 mm 0.20 in5.1 mm
11:15 AM 40.6°F4.8°C 39.3°F4.1°C 95% 12.7 mph W20.4 kmh W 24.3 mph39.1 kmh 29.15 in987.1 mb 0.05 in1.3 mm 0.00 in0.0 mm 0.20 in5.1 mm
11:30 AM 40.6°F4.8°C 39.0°F3.9°C 94% 11.9 mph W19.2 kmh W 27.9 mph44.9 kmh 29.15 in987.1 mb 0.00 in0.0 mm 0.00 in0.0 mm 0.20 in5.1 mm
11:45 AM 41.0°F5.0°C 39.4°F4.1°C 94% 16.0 mph W25.7 kmh W 33.6 mph54.1 kmh 29.18 in988.1 mb 0.00 in0.0 mm 0.00 in0.0 mm 0.20 in5.1 mm
12:00 PM 41.2°F5.1°C 39.6°F4.2°C 94% 15.3 mph W24.6 kmh W 31.5 mph50.7 kmh 29.15 in987.1 mb 0.00 in0.0 mm 0.00 in0.0 mm 0.20 in5.1 mm
12:15 PM 41.0°F5.0°C 38.9°F3.8°C 92% 13.4 mph W21.6 kmh W 31.1 mph50.1 kmh 29.18 in988.1 mb 0.00 in0.0 mm 0.00 in0.0 mm 0.20 in5.1 mm
12:30 PM 40.5°F4.7°C 37.8°F3.2°C 90% 14.9 mph W24.0 kmh W 38.3 mph61.6 kmh 29.21 in989.2 mb 0.06 in1.5 mm 0.24 in6.1 mm 0.26 in6.6 mm
12:45 PM 40.5°F4.7°C 37.8°F3.2°C 90% 13.9 mph W22.4 kmh W 23.6 mph38.0 kmh 29.21 in989.2 mb 0.06 in1.5 mm 0.00 in0.0 mm 0.26 in6.6 mm
01:00 PM 40.5°F4.7°C 37.2°F2.9°C 88% 14.0 mph W22.5 kmh W 31.9 mph51.3 kmh 29.21 in989.2 mb 0.06 in1.5 mm 0.00 in0.0 mm 0.26 in6.6 mm
01:15 PM 40.6°F4.8°C 37.1°F2.8°C 87% 12.6 mph W20.3 kmh W 25.4 mph40.9 kmh 29.21 in989.2 mb 0.06 in1.5 mm 0.00 in0.0 mm 0.26 in6.6 mm
01:30 PM 41.2°F5.1°C 37.6°F3.1°C 87% 12.9 mph W20.8 kmh W 23.3 mph37.5 kmh 29.21 in989.2 mb 0.00 in0.0 mm 0.00 in0.0 mm 0.26 in6.6 mm
01:45 PM 41.5°F5.3°C 37.4°F3.0°C 85% 12.9 mph W20.8 kmh W 22.5 mph36.2 kmh 29.24 in990.2 mb 0.00 in0.0 mm 0.00 in0.0 mm 0.26 in6.6 mm
02:00 PM 42.1°F5.6°C 37.0°F2.8°C 82% 11.8 mph W19.0 kmh W 20.0 mph32.2 kmh 29.24 in990.2 mb 0.00 in0.0 mm 0.00 in0.0 mm 0.26 in6.6 mm
02:15 PM 42.3°F5.7°C 36.5°F2.5°C 80% 11.8 mph W19.0 kmh W 21.5 mph34.6 kmh 29.24 in990.2 mb 0.00 in0.0 mm 0.00 in0.0 mm 0.26 in6.6 mm
02:30 PM 42.3°F5.7°C 36.2°F2.3°C 79% 11.0 mph W17.7 kmh W 21.8 mph35.1 kmh 29.24 in990.2 mb 0.00 in0.0 mm 0.00 in0.0 mm 0.26 in6.6 mm
02:45 PM 42.3°F5.7°C 35.9°F2.2°C 78% 11.8 mph W19.0 kmh W 19.7 mph31.7 kmh 29.24 in990.2 mb 0.00 in0.0 mm 0.00 in0.0 mm 0.26 in6.6 mm
03:00 PM 42.3°F5.7°C 35.6°F2.0°C 77% 11.3 mph W18.2 kmh W 26.5 mph42.6 kmh 29.24 in990.2 mb 0.00 in0.0 mm 0.00 in0.0 mm 0.26 in6.6 mm
03:15 PM 42.4°F5.8°C 35.1°F1.7°C 75% 13.6 mph W21.9 kmh W 24.3 mph39.1 kmh 29.27 in991.2 mb 0.00 in0.0 mm 0.00 in0.0 mm 0.26 in6.6 mm
03:30 PM 42.8°F6.0°C 35.1°F1.7°C 74% 12.7 mph W20.4 kmh W 31.5 mph50.7 kmh 29.24 in990.2 mb 0.00 in0.0 mm 0.00 in0.0 mm 0.26 in6.6 mm
03:45 PM 43.0°F6.1°C 35.3°F1.8°C 74% 13.5 mph W21.7 kmh W 28.6 mph46.0 kmh 29.24 in990.2 mb 0.00 in0.0 mm 0.00 in0.0 mm 0.26 in6.6 mm
04:00 PM 42.8°F6.0°C 34.7°F1.5°C 73% 14.1 mph W22.7 kmh W 31.1 mph50.1 kmh 29.24 in990.2 mb 0.00 in0.0 mm 0.00 in0.0 mm 0.26 in6.6 mm
04:15 PM 42.3°F5.7°C 34.2°F1.2°C 73% 12.7 mph W20.4 kmh W 25.1 mph40.4 kmh 29.24 in990.2 mb 0.00 in0.0 mm 0.00 in0.0 mm 0.26 in6.6 mm
04:28 PM 42.3°F5.7°C 34.2°F1.2°C 73% 13.2 mph W21.2 kmh W 20.0 mph32.2 kmh 29.24 in990.2 mb 0.00 in0.0 mm 0.00 in0.0 mm 0.26 in6.6 mm
04:29 PM 42.3°F5.7°C 34.2°F1.2°C 73% 14.1 mph W22.7 kmh W 20.0 mph32.2 kmh 29.24 in990.2 mb 0.00 in0.0 mm 0.00 in0.0 mm 0.26 in6.6 mm
04:30 PM 42.3°F5.7°C 34.2°F1.2°C 73% 15.3 mph W24.6 kmh W 20.0 mph32.2 kmh 29.24 in990.2 mb 0.00 in0.0 mm 0.00 in0.0 mm 0.26 in6.6 mm
04:31 PM 42.3°F5.7°C 34.2°F1.2°C 73% 14.9 mph W24.0 kmh W 20.0 mph32.2 kmh 29.24 in990.2 mb 0.00 in0.0 mm 0.00 in0.0 mm 0.26 in6.6 mm
04:32 PM 42.4°F5.8°C 34.4°F1.3°C 73% 14.2 mph W22.9 kmh W 20.0 mph32.2 kmh 29.24 in990.2 mb 0.00 in0.0 mm 0.00 in0.0 mm 0.26 in6.6 mm
04:45 PM 42.4°F5.8°C 34.0°F1.1°C 72% 13.9 mph W22.4 kmh W 37.9 mph61.0 kmh 29.24 in990.2 mb 0.00 in0.0 mm 0.00 in0.0 mm 0.26 in6.6 mm
05:00 PM 42.3°F5.7°C 33.9°F1.1°C 72% 12.8 mph W20.6 kmh W 26.8 mph43.1 kmh 29.27 in991.2 mb 0.00 in0.0 mm 0.00 in0.0 mm 0.26 in6.6 mm
05:15 PM 41.5°F5.3°C 33.5°F0.8°C 73% 10.8 mph W17.4 kmh W 20.4 mph32.8 kmh 29.24 in990.2 mb 0.00 in0.0 mm 0.00 in0.0 mm 0.26 in6.6 mm
05:30 PM 40.8°F4.9°C 33.2°F0.7°C 74% 11.1 mph W17.9 kmh W 27.2 mph43.8 kmh 29.27 in991.2 mb 0.00 in0.0 mm 0.00 in0.0 mm 0.26 in6.6 mm
05:45 PM 39.9°F4.4°C 32.3°F0.2°C 74% 12.1 mph W19.5 kmh W 21.1 mph34.0 kmh 29.24 in990.2 mb 0.00 in0.0 mm 0.00 in0.0 mm 0.26 in6.6 mm
06:00 PM 39.4°F4.1°C 32.4°F0.2°C 76% 10.2 mph W16.4 kmh W 21.1 mph34.0 kmh 29.21 in989.2 mb 0.00 in0.0 mm 0.00 in0.0 mm 0.26 in6.6 mm
06:15 PM 39.6°F4.2°C 33.6°F0.9°C 79% 10.2 mph W16.4 kmh W 24.3 mph39.1 kmh 29.21 in989.2 mb 0.00 in0.0 mm 0.00 in0.0 mm 0.26 in6.6 mm
06:30 PM 39.7°F4.3°C 33.1°F0.6°C 77% 10.7 mph W17.2 kmh W 30.8 mph49.6 kmh 29.21 in989.2 mb 0.00 in0.0 mm 0.00 in0.0 mm 0.26 in6.6 mm
06:45 PM 39.7°F4.3°C 32.8°F0.4°C 76% 11.1 mph W17.9 kmh W 21.1 mph34.0 kmh 29.24 in990.2 mb 0.00 in0.0 mm 0.00 in0.0 mm 0.26 in6.6 mm
07:00 PM 39.2°F4.0°C 32.3°F0.2°C 76% 9.8 mph W15.8 kmh W 16.5 mph26.6 kmh 29.24 in990.2 mb 0.00 in0.0 mm 0.00 in0.0 mm 0.26 in6.6 mm
07:15 PM 38.8°F3.8°C 32.6°F0.3°C 78% 11.2 mph W18.0 kmh W 24.3 mph39.1 kmh 29.24 in990.2 mb 0.00 in0.0 mm 0.00 in0.0 mm 0.26 in6.6 mm
07:30 PM 38.7°F3.7°C 32.4°F0.2°C 78% 11.8 mph W19.0 kmh W 20.4 mph32.8 kmh 29.21 in989.2 mb 0.00 in0.0 mm 0.00 in0.0 mm 0.26 in6.6 mm
07:45 PM 38.5°F3.6°C 32.2°F0.1°C 78% 8.6 mph W13.8 kmh W 19.3 mph31.1 kmh 29.21 in989.2 mb 0.00 in0.0 mm 0.00 in0.0 mm 0.26 in6.6 mm
08:00 PM 38.5°F3.6°C 32.5°F0.3°C 79% 10.6 mph W17.1 kmh W 24.3 mph39.1 kmh 29.21 in989.2 mb 0.00 in0.0 mm 0.00 in0.0 mm 0.26 in6.6 mm
08:15 PM 38.7°F3.7°C 32.4°F0.2°C 78% 9.8 mph W15.8 kmh W 25.8 mph41.5 kmh 29.24 in990.2 mb 0.00 in0.0 mm 0.00 in0.0 mm 0.26 in6.6 mm
08:30 PM 39.2°F4.0°C 32.9°F0.5°C 78% 9.4 mph W15.1 kmh W 20.8 mph33.5 kmh 29.24 in990.2 mb 0.00 in0.0 mm 0.00 in0.0 mm 0.26 in6.6 mm
08:45 PM 39.4°F4.1°C 33.1°F0.6°C 78% 10.1 mph W16.3 kmh W 20.8 mph33.5 kmh 29.24 in990.2 mb 0.00 in0.0 mm 0.00 in0.0 mm 0.26 in6.6 mm
09:00 PM 39.6°F4.2°C 33.3°F0.7°C 78% 9.8 mph W15.8 kmh W 17.5 mph28.2 kmh 29.24 in990.2 mb 0.00 in0.0 mm 0.00 in0.0 mm 0.26 in6.6 mm
09:15 PM 39.2°F4.0°C 33.5°F0.8°C 80% 12.2 mph W19.6 kmh W 24.3 mph39.1 kmh 29.27 in991.2 mb 0.00 in0.0 mm 0.00 in0.0 mm 0.26 in6.6 mm
09:30 PM 38.1°F3.4°C 33.1°F0.6°C 82% 10.7 mph W17.2 kmh W 25.1 mph40.4 kmh 29.27 in991.2 mb 0.00 in0.0 mm 0.00 in0.0 mm 0.26 in6.6 mm
09:45 PM 37.8°F3.2°C 33.4°F0.8°C 84% 9.8 mph W15.8 kmh W 19.3 mph31.1 kmh 29.27 in991.2 mb 0.00 in0.0 mm 0.00 in0.0 mm 0.26 in6.6 mm
10:00 PM 37.6°F3.1°C 33.8°F1.0°C 86% 9.3 mph W15.0 kmh W 17.2 mph27.7 kmh 29.24 in990.2 mb 0.00 in0.0 mm 0.00 in0.0 mm 0.26 in6.6 mm
10:15 PM 37.8°F3.2°C 34.2°F1.2°C 87% 8.4 mph W13.5 kmh W 16.5 mph26.6 kmh 29.24 in990.2 mb 0.00 in0.0 mm 0.00 in0.0 mm 0.26 in6.6 mm
10:30 PM 37.9°F3.3°C 34.7°F1.5°C 88% 11.1 mph W17.9 kmh W 22.5 mph36.2 kmh 29.24 in990.2 mb 0.00 in0.0 mm 0.00 in0.0 mm 0.26 in6.6 mm
10:45 PM 38.3°F3.5°C 35.1°F1.7°C 88% 9.8 mph W15.8 kmh W 20.0 mph32.2 kmh 29.24 in990.2 mb 0.00 in0.0 mm 0.00 in0.0 mm 0.26 in6.6 mm
11:00 PM 38.3°F3.5°C 34.8°F1.6°C 87% 8.9 mph W14.3 kmh W 17.2 mph27.7 kmh 29.24 in990.2 mb 0.00 in0.0 mm 0.00 in0.0 mm 0.26 in6.6 mm
11:15 PM 38.5°F3.6°C 34.9°F1.6°C 87% 9.6 mph W15.4 kmh W 18.3 mph29.5 kmh 29.24 in990.2 mb 0.00 in0.0 mm 0.00 in0.0 mm 0.26 in6.6 mm
11:30 PM 38.5°F3.6°C 34.9°F1.6°C 87% 9.2 mph W14.8 kmh W 16.5 mph26.6 kmh 29.24 in990.2 mb 0.00 in0.0 mm 0.00 in0.0 mm 0.26 in6.6 mm
11:45 PM 38.5°F3.6°C 34.7°F1.5°C 86% 10.7 mph W17.2 kmh W 21.1 mph34.0 kmh 29.24 in990.2 mb 0.00 in0.0 mm 0.00 in0.0 mm 0.26 in6.6 mm